createdAt,value
2022-07-28T00:02:21.077Z,5.18
2022-07-28T00:04:48.095Z,4.85
2022-07-28T00:07:14.887Z,5.43
2022-07-28T00:09:41.525Z,5.68
2022-07-28T00:12:08.694Z,5.43
2022-07-28T00:14:35.642Z,5.68
2022-07-28T00:17:02.592Z,5.53
2022-07-28T00:19:29.263Z,4.90
2022-07-28T00:21:55.909Z,5.05
2022-07-28T00:24:24.212Z,5.70
2022-07-28T00:26:50.839Z,5.75
2022-07-28T00:29:17.681Z,5.60
2022-07-28T00:31:44.409Z,5.80
2022-07-28T00:34:12.361Z,5.45
2022-07-28T00:36:39.425Z,5.38
2022-07-28T00:39:06.448Z,5.65
2022-07-28T00:41:33.427Z,5.85
2022-07-28T00:44:00.091Z,4.78
2022-07-28T00:46:27.127Z,4.95
2022-07-28T00:48:55.268Z,5.22
2022-07-28T00:51:25.588Z,4.63
2022-07-28T00:53:53.022Z,5.30
2022-07-28T00:56:20.576Z,5.90
2022-07-28T00:58:48.248Z,6.30
2022-07-28T01:01:17.852Z,6.47
2022-07-28T01:03:48.155Z,6.65
2022-07-28T01:06:36.672Z,7.50
2022-07-28T01:09:42.273Z,5.90
2022-07-28T01:12:41.075Z,6.22
2022-07-28T01:15:25.526Z,6.38
2022-07-28T01:18:16.980Z,6.00
2022-07-28T01:21:20.899Z,7.00
2022-07-28T01:24:16.810Z,6.15
2022-07-28T01:27:05.980Z,6.20
2022-07-28T01:30:11.031Z,7.03
2022-07-28T01:32:46.184Z,6.70
2022-07-28T01:35:41.651Z,7.38
2022-07-28T01:38:11.651Z,6.40
2022-07-28T01:40:40.760Z,7.40
2022-07-28T01:43:13.355Z,7.65
2022-07-28T01:45:42.634Z,8.10
2022-07-28T01:48:11.339Z,8.50
2022-07-28T01:50:40.716Z,8.40
2022-07-28T01:53:12.006Z,7.10
2022-07-28T01:55:39.695Z,7.70
2022-07-28T01:58:07.741Z,8.07
2022-07-28T02:00:35.476Z,7.90
2022-07-28T02:03:06.046Z,7.68
2022-07-28T02:05:35.305Z,8.70
2022-07-28T02:08:05.356Z,8.13
2022-07-28T02:10:33.343Z,9.18
2022-07-28T02:13:01.876Z,8.90
2022-07-28T02:15:31.417Z,8.50
2022-07-28T02:17:59.725Z,8.18
2022-07-28T02:20:26.523Z,8.75
2022-07-28T02:22:54.105Z,8.60
2022-07-28T02:25:21.810Z,8.25
2022-07-28T02:27:57.200Z,8.75
2022-07-28T02:30:38.354Z,8.95
2022-07-28T02:33:14.913Z,7.20
2022-07-28T02:36:10.157Z,8.10
2022-07-28T02:38:51.012Z,8.00
2022-07-28T02:41:27.360Z,8.32
2022-07-28T02:43:58.170Z,8.20
2022-07-28T02:46:29.201Z,8.73
2022-07-28T02:49:03.369Z,8.43
2022-07-28T02:51:33.252Z,8.57
2022-07-28T02:54:01.220Z,8.63
2022-07-28T02:56:30.279Z,9.50
2022-07-28T02:58:58.626Z,8.48
2022-07-28T03:01:25.838Z,8.73
2022-07-28T03:03:55.362Z,9.55
2022-07-28T03:06:28.415Z,8.77
2022-07-28T03:08:56.711Z,9.30
2022-07-28T03:11:23.324Z,9.60
2022-07-28T03:13:49.953Z,8.50
2022-07-28T03:16:16.725Z,10.20
2022-07-28T03:18:43.512Z,9.80
2022-07-28T03:21:10.279Z,9.45
2022-07-28T03:23:47.903Z,9.20
2022-07-28T03:26:21.223Z,9.95
2022-07-28T03:28:48.888Z,8.77
2022-07-28T03:31:16.832Z,8.93
2022-07-28T03:33:43.577Z,8.85
2022-07-28T03:36:15.670Z,9.25
2022-07-28T03:39:02.950Z,9.00
2022-07-28T03:41:32.322Z,8.93
2022-07-28T03:44:00.411Z,9.95
2022-07-28T03:46:28.193Z,9.45
2022-07-28T03:48:55.445Z,9.35
2022-07-28T03:51:22.764Z,9.48
2022-07-28T03:53:49.663Z,8.88
2022-07-28T03:56:16.480Z,9.15
2022-07-28T03:58:43.175Z,8.77
2022-07-28T04:01:09.867Z,8.00
2022-07-28T04:03:43.887Z,8.95
2022-07-28T04:06:15.642Z,9.02
2022-07-28T04:08:43.539Z,9.00
2022-07-28T04:11:10.242Z,9.70
2022-07-28T04:13:37.382Z,9.07
2022-07-28T04:16:05.142Z,8.88
2022-07-28T04:18:32.028Z,9.05
2022-07-28T04:20:58.787Z,9.23
2022-07-28T04:23:25.583Z,8.98
2022-07-28T04:25:52.298Z,8.70
2022-07-28T04:28:19.028Z,9.50
2022-07-28T04:30:45.977Z,9.02
2022-07-28T04:33:12.928Z,8.50
2022-07-28T04:35:39.689Z,8.95
2022-07-28T04:38:06.381Z,8.38
2022-07-28T04:40:34.454Z,8.13
2022-07-28T04:43:01.657Z,8.80
2022-07-28T04:45:28.420Z,8.13
2022-07-28T04:47:55.122Z,8.68
2022-07-28T04:50:21.841Z,7.40
2022-07-28T04:52:49.867Z,8.05
2022-07-28T04:55:17.474Z,7.75
2022-07-28T04:57:44.205Z,7.95
2022-07-28T05:00:14.850Z,8.38
2022-07-28T05:02:43.434Z,8.52
2022-07-28T05:05:10.936Z,7.28
2022-07-28T05:07:38.717Z,8.02
2022-07-28T05:10:06.984Z,8.00
2022-07-28T05:12:33.954Z,8.23
2022-07-28T05:15:00.950Z,8.60
2022-07-28T05:17:27.656Z,8.23
2022-07-28T05:19:54.330Z,8.57
2022-07-28T05:22:21.218Z,8.85
2022-07-28T05:24:47.885Z,7.90
2022-07-28T05:27:14.479Z,7.95
2022-07-28T05:29:47.314Z,8.07
2022-07-28T05:32:16.202Z,7.53
2022-07-28T05:34:44.550Z,7.82
2022-07-28T05:37:11.204Z,7.70
2022-07-28T05:39:37.808Z,7.68
2022-07-28T05:42:04.853Z,7.32
2022-07-28T05:44:37.254Z,7.30
2022-07-28T05:47:06.291Z,7.68
2022-07-28T05:49:33.109Z,8.05
2022-07-28T05:51:59.704Z,7.20
2022-07-28T05:54:26.832Z,6.38
2022-07-28T05:56:53.532Z,7.10
2022-07-28T05:59:20.244Z,6.03
2022-07-28T06:01:47.053Z,6.80
2022-07-28T06:04:26.544Z,6.75
2022-07-28T06:06:54.868Z,7.13
2022-07-28T06:09:21.537Z,6.95
2022-07-28T06:11:50.387Z,6.78
2022-07-28T06:14:17.940Z,6.07
2022-07-28T06:16:45.278Z,6.05
2022-07-28T06:19:12.563Z,6.25
2022-07-28T06:21:39.271Z,6.10
2022-07-28T06:24:08.532Z,5.85
2022-07-28T06:26:43.719Z,5.15
2022-07-28T06:29:11.396Z,5.97
2022-07-28T06:31:38.996Z,4.72
2022-07-28T06:34:05.909Z,5.45
2022-07-28T06:36:32.603Z,5.07
2022-07-28T06:38:59.275Z,5.75
2022-07-28T06:41:25.987Z,4.80
2022-07-28T06:43:52.810Z,4.78
2022-07-28T06:46:19.940Z,4.20
2022-07-28T06:48:46.744Z,4.20
2022-07-28T06:51:15.129Z,4.10
2022-07-28T06:53:41.795Z,4.07
2022-07-28T06:56:10.883Z,4.05
2022-07-28T06:58:40.668Z,5.00
2022-07-28T07:01:10.768Z,4.18
2022-07-28T07:03:37.423Z,4.45
2022-07-28T07:06:04.398Z,5.15
2022-07-28T07:08:31.145Z,4.70
2022-07-28T07:10:58.072Z,4.07
2022-07-28T07:13:24.921Z,4.43
2022-07-28T07:15:51.662Z,4.38
2022-07-28T07:18:18.402Z,4.00
2022-07-28T07:20:45.073Z,4.75
2022-07-28T07:23:11.818Z,4.43
2022-07-28T07:25:39.868Z,5.20
2022-07-28T07:28:06.562Z,4.18
2022-07-28T07:30:33.354Z,4.65
2022-07-28T07:33:00.021Z,4.30
2022-07-28T07:35:26.846Z,4.57
2022-07-28T07:37:56.065Z,4.10
2022-07-28T07:40:22.708Z,4.35
2022-07-28T07:42:49.400Z,3.78
2022-07-28T07:45:16.036Z,4.32
2022-07-28T07:47:42.678Z,4.20
2022-07-28T07:50:09.572Z,4.40
2022-07-28T07:52:36.239Z,4.43
2022-07-28T07:55:03.815Z,4.55
2022-07-28T07:57:30.519Z,4.90
2022-07-28T07:59:57.162Z,4.72
2022-07-28T08:02:23.813Z,4.28
2022-07-28T08:04:50.591Z,4.00
2022-07-28T08:07:17.898Z,4.75
2022-07-28T08:09:48.717Z,4.22
2022-07-28T08:12:15.360Z,4.72
2022-07-28T08:14:42.183Z,4.72
2022-07-28T08:17:14.635Z,4.82
2022-07-28T08:19:41.518Z,4.20
2022-07-28T08:22:08.217Z,4.15
2022-07-28T08:24:34.986Z,4.68
2022-07-28T08:27:05.365Z,4.70
2022-07-28T08:29:32.493Z,4.22
2022-07-28T08:31:59.248Z,4.50
2022-07-28T08:34:31.201Z,4.47
2022-07-28T08:37:01.329Z,5.65
2022-07-28T08:39:28.060Z,3.85
2022-07-28T08:42:12.103Z,3.60
2022-07-28T08:44:54.845Z,4.50
2022-07-28T08:47:22.296Z,3.83
2022-07-28T08:49:50.028Z,4.20
2022-07-28T08:52:20.552Z,4.30
2022-07-28T08:54:49.598Z,4.05
2022-07-28T08:57:20.353Z,4.63
2022-07-28T08:59:49.007Z,3.92
2022-07-28T09:02:16.301Z,4.22
2022-07-28T09:04:46.204Z,4.13
2022-07-28T09:07:13.491Z,5.15
2022-07-28T09:09:40.060Z,5.00
2022-07-28T09:12:07.200Z,4.30
2022-07-28T09:14:34.596Z,4.45
2022-07-28T09:17:02.735Z,4.30
2022-07-28T09:19:34.064Z,4.20
2022-07-28T09:22:02.353Z,4.00
2022-07-28T09:24:44.449Z,4.15
2022-07-28T09:27:13.362Z,4.57
2022-07-28T09:29:42.051Z,3.83
2022-07-28T09:32:09.017Z,4.18
2022-07-28T09:34:46.733Z,3.53
2022-07-28T09:37:28.607Z,4.38
2022-07-28T09:39:59.639Z,4.20
2022-07-28T09:42:26.546Z,3.75
2022-07-28T09:45:22.258Z,3.25
2022-07-28T09:47:50.104Z,4.72
2022-07-28T09:50:21.915Z,4.13
2022-07-28T09:52:48.675Z,3.72
2022-07-28T09:55:15.405Z,3.92
2022-07-28T09:57:45.781Z,4.60
2022-07-28T10:00:28.293Z,4.25
2022-07-28T10:02:55.610Z,4.05
2022-07-28T10:05:22.404Z,4.63
2022-07-28T10:07:52.954Z,4.05
2022-07-28T10:10:22.671Z,3.63
2022-07-28T10:12:49.400Z,4.45
2022-07-28T10:15:36.702Z,4.85
2022-07-28T10:18:05.095Z,3.78
2022-07-28T10:20:33.052Z,4.18
2022-07-28T10:23:09.481Z,4.43
2022-07-28T10:25:40.459Z,4.50
2022-07-28T10:28:10.199Z,4.32
2022-07-28T10:30:40.070Z,4.35
2022-07-28T10:33:13.886Z,4.10
2022-07-28T10:35:54.242Z,4.43
2022-07-28T10:38:23.921Z,4.40
2022-07-28T10:40:52.439Z,4.53
2022-07-28T10:43:20.243Z,4.78
2022-07-28T10:46:05.073Z,4.70
2022-07-28T10:48:33.794Z,4.53
2022-07-28T10:51:01.411Z,3.38
2022-07-28T10:54:00.119Z,4.97
2022-07-28T10:56:41.335Z,4.45
2022-07-28T10:59:39.547Z,3.83
2022-07-28T11:02:06.482Z,3.65
2022-07-28T11:04:52.291Z,3.90
2022-07-28T11:07:20.667Z,3.60
2022-07-28T11:09:47.609Z,4.47
2022-07-28T11:12:18.007Z,4.00
2022-07-28T11:14:44.991Z,3.60
2022-07-28T11:17:16.996Z,3.97
2022-07-28T11:20:16.896Z,3.65
2022-07-28T11:22:42.787Z,4.15
2022-07-28T11:25:19.577Z,4.00
2022-07-28T11:28:08.742Z,4.00
2022-07-28T11:30:53.339Z,4.05
2022-07-28T11:33:20.560Z,4.05
2022-07-28T11:35:47.327Z,3.95
2022-07-28T11:38:14.719Z,4.13
2022-07-28T11:40:50.018Z,3.70
2022-07-28T11:43:36.876Z,3.78
2022-07-28T11:46:24.957Z,4.25
2022-07-28T11:49:16.876Z,4.15
2022-07-28T11:52:07.177Z,4.88
2022-07-28T11:54:35.609Z,3.80
2022-07-28T11:57:04.211Z,3.85
2022-07-28T11:59:44.439Z,4.43
2022-07-28T12:02:27.031Z,3.92
2022-07-28T12:04:59.010Z,4.40
2022-07-28T12:07:32.893Z,4.20
2022-07-28T12:10:00.383Z,3.75
2022-07-28T12:12:30.579Z,3.63
2022-07-28T12:15:00.926Z,3.70
2022-07-28T12:17:34.157Z,4.38
2022-07-28T12:20:11.577Z,3.50
2022-07-28T12:22:40.982Z,3.85
2022-07-28T12:25:13.367Z,4.10
2022-07-28T12:27:40.564Z,4.10
2022-07-28T12:30:13.600Z,4.15
2022-07-28T12:32:42.344Z,4.13
2022-07-28T12:35:09.680Z,4.15
2022-07-28T12:37:36.442Z,3.80
2022-07-28T12:40:03.570Z,4.00
2022-07-28T12:42:33.197Z,4.40
2022-07-28T12:45:03.460Z,4.45
2022-07-28T12:47:31.531Z,4.68
2022-07-28T12:50:15.752Z,4.30
2022-07-28T12:52:43.850Z,4.22
2022-07-28T12:55:29.231Z,3.85
2022-07-28T12:57:55.923Z,3.90
2022-07-28T13:00:26.311Z,4.35
2022-07-28T13:02:56.266Z,4.00
2022-07-28T13:05:58.326Z,4.93
2022-07-28T13:08:27.594Z,4.13
2022-07-28T13:10:58.640Z,4.00
2022-07-28T13:13:26.774Z,3.90
2022-07-28T13:16:22.290Z,4.05
2022-07-28T13:18:54.195Z,4.50
2022-07-28T13:21:57.143Z,3.88
2022-07-28T13:24:27.774Z,3.70
2022-07-28T13:26:55.082Z,3.67
2022-07-28T13:29:22.546Z,4.18
2022-07-28T13:31:49.437Z,4.22
2022-07-28T13:34:16.725Z,3.97
2022-07-28T13:36:43.675Z,4.72
2022-07-28T13:39:14.236Z,4.20
2022-07-28T13:41:57.276Z,4.10
2022-07-28T13:44:25.746Z,3.80
2022-07-28T13:46:53.265Z,3.90
2022-07-28T13:49:22.798Z,4.03
2022-07-28T13:51:51.244Z,4.30
2022-07-28T13:54:19.028Z,4.03
2022-07-28T13:56:46.574Z,3.88
2022-07-28T13:59:13.780Z,3.80
2022-07-28T14:01:42.468Z,4.15
2022-07-28T14:04:16.776Z,3.65
2022-07-28T14:06:45.363Z,5.43
2022-07-28T14:09:13.022Z,4.28
2022-07-28T14:11:49.932Z,3.95
2022-07-28T14:14:20.440Z,4.38
2022-07-28T14:16:54.536Z,3.97
2022-07-28T14:19:38.289Z,3.53
2022-07-28T14:22:12.194Z,4.93
2022-07-28T14:24:39.066Z,4.90
2022-07-28T14:27:05.742Z,4.68
2022-07-28T14:29:32.867Z,4.40
2022-07-28T14:31:59.620Z,4.53
2022-07-28T14:34:26.416Z,4.10
2022-07-28T14:36:53.175Z,4.18
2022-07-28T14:39:20.190Z,4.30
2022-07-28T14:41:46.928Z,4.30
2022-07-28T14:44:24.545Z,4.72
2022-07-28T14:46:51.857Z,4.38
2022-07-28T14:49:18.947Z,4.18
2022-07-28T14:51:45.967Z,4.10
2022-07-28T14:54:13.198Z,4.10
2022-07-28T14:56:40.386Z,4.30
2022-07-28T14:59:07.274Z,4.80
2022-07-28T15:01:35.990Z,4.40
2022-07-28T15:04:03.219Z,5.40
2022-07-28T15:06:29.887Z,4.65
2022-07-28T15:08:57.844Z,4.13
2022-07-28T15:11:24.872Z,5.85
2022-07-28T15:13:51.736Z,4.43
2022-07-28T15:16:18.606Z,4.85
2022-07-28T15:18:45.359Z,4.25
2022-07-28T15:21:16.507Z,4.03
2022-07-28T15:23:43.691Z,4.73
2022-07-28T15:26:10.849Z,4.60
2022-07-28T15:28:37.826Z,4.25
2022-07-28T15:31:06.700Z,4.97
2022-07-28T15:33:41.104Z,4.85
2022-07-28T15:36:15.828Z,4.10
2022-07-28T15:38:47.036Z,4.10
2022-07-28T15:41:15.118Z,4.50
2022-07-28T15:43:42.248Z,4.70
2022-07-28T15:46:11.757Z,4.82
2022-07-28T15:48:41.558Z,4.72
2022-07-28T15:51:09.091Z,4.95
2022-07-28T15:53:36.669Z,5.05
2022-07-28T15:56:04.495Z,5.00
2022-07-28T15:58:31.573Z,4.63
2022-07-28T16:01:01.021Z,4.30
2022-07-28T16:03:29.476Z,4.25
2022-07-28T16:05:56.328Z,4.35
2022-07-28T16:08:23.897Z,4.40
2022-07-28T16:10:52.973Z,4.57
2022-07-28T16:13:36.203Z,4.85
2022-07-28T16:16:12.571Z,4.47
2022-07-28T16:18:42.477Z,4.38
2022-07-28T16:21:10.704Z,4.85
2022-07-28T16:23:37.423Z,4.70
2022-07-28T16:26:07.781Z,4.03
2022-07-28T16:28:34.985Z,4.38
2022-07-28T16:31:01.753Z,4.15
2022-07-28T16:33:33.101Z,4.38
2022-07-28T16:38:27.343Z,4.93
2022-07-28T16:40:54.072Z,5.05
2022-07-28T16:43:20.772Z,4.68
2022-07-28T16:45:47.384Z,4.53
2022-07-28T16:48:14.094Z,4.32
2022-07-28T16:50:45.783Z,4.57
2022-07-28T16:53:13.849Z,4.03
2022-07-28T16:55:42.223Z,3.92
2022-07-28T16:58:09.146Z,4.15
2022-07-28T17:00:36.006Z,4.40
2022-07-28T17:03:02.722Z,4.60
2022-07-28T17:05:29.424Z,4.30
2022-07-28T17:07:56.133Z,4.25
2022-07-28T17:10:26.431Z,4.43
2022-07-28T17:12:54.606Z,5.03
2022-07-28T17:15:22.861Z,5.18
2022-07-28T17:17:53.254Z,4.75
2022-07-28T17:20:20.929Z,4.40
2022-07-28T17:22:48.089Z,3.80
2022-07-28T17:28:02.014Z,4.72
2022-07-28T17:30:30.364Z,3.90
2022-07-28T17:32:59.238Z,3.95
2022-07-28T17:35:34.196Z,4.10
2022-07-28T17:38:03.634Z,4.63
2022-07-28T17:40:30.900Z,4.20
2022-07-28T17:42:57.636Z,4.20
2022-07-28T17:45:24.845Z,4.15
2022-07-28T17:47:52.297Z,4.68
2022-07-28T17:50:19.417Z,4.32
2022-07-28T17:52:46.669Z,4.00
2022-07-28T17:55:55.729Z,4.43
2022-07-28T17:58:26.295Z,4.50
2022-07-28T18:00:58.058Z,4.63
2022-07-28T18:03:27.285Z,4.30
2022-07-28T18:05:54.289Z,4.53
2022-07-28T18:08:21.130Z,4.18
2022-07-28T18:10:50.519Z,4.47
2022-07-28T18:13:17.926Z,4.38
2022-07-28T18:15:44.846Z,4.03
2022-07-28T18:18:11.700Z,3.80
2022-07-28T18:20:39.045Z,3.83
2022-07-28T18:23:07.033Z,3.92
2022-07-28T18:25:34.649Z,3.85
2022-07-28T18:28:01.707Z,4.10
2022-07-28T18:30:29.171Z,4.03
2022-07-28T18:32:55.981Z,3.97
2022-07-28T18:35:23.123Z,3.80
2022-07-28T18:37:50.253Z,4.25
2022-07-28T18:40:18.626Z,4.07
2022-07-28T18:42:46.322Z,3.42
2022-07-28T18:45:13.709Z,3.80
2022-07-28T18:47:47.341Z,3.83
2022-07-28T18:50:28.009Z,3.88
2022-07-28T18:52:59.189Z,4.28
2022-07-28T18:55:26.055Z,3.50
2022-07-28T18:57:52.705Z,4.70
2022-07-28T19:00:19.613Z,3.90
2022-07-28T19:02:46.412Z,4.30
2022-07-28T19:05:13.235Z,4.28
2022-07-28T19:07:40.067Z,3.95
2022-07-28T19:10:07.623Z,4.05
2022-07-28T19:12:34.540Z,4.35
2022-07-28T19:15:01.731Z,4.00
2022-07-28T19:17:28.930Z,3.88
2022-07-28T19:19:56.333Z,4.10
2022-07-28T19:22:24.041Z,4.28
2022-07-28T19:24:51.933Z,4.00
2022-07-28T19:27:19.221Z,3.75
2022-07-28T19:29:45.943Z,4.20
2022-07-28T19:32:12.693Z,3.90
2022-07-28T19:34:39.417Z,4.20
2022-07-28T19:37:06.627Z,4.47
2022-07-28T19:39:34.502Z,4.03
2022-07-28T19:42:01.200Z,4.35
2022-07-28T19:44:30.099Z,4.28
2022-07-28T19:47:00.455Z,4.40
2022-07-28T19:49:27.246Z,4.18
2022-07-28T19:51:54.946Z,4.80
2022-07-28T19:54:23.271Z,4.95
2022-07-28T19:56:50.137Z,5.07
2022-07-28T19:59:16.846Z,4.35
2022-07-28T20:01:46.689Z,4.68
2022-07-28T20:04:13.809Z,4.70
2022-07-28T20:06:40.531Z,4.63
2022-07-28T20:09:07.246Z,4.72
2022-07-28T20:11:33.996Z,4.57
2022-07-28T20:14:01.094Z,5.20
2022-07-28T20:16:28.207Z,4.28
2022-07-28T20:18:56.820Z,4.57
2022-07-28T20:21:24.893Z,4.35
2022-07-28T20:23:55.054Z,5.03
2022-07-28T20:26:23.748Z,4.95
2022-07-28T20:28:50.810Z,4.82
2022-07-28T20:31:17.614Z,4.78
2022-07-28T20:33:44.579Z,4.47
2022-07-28T20:36:11.272Z,4.55
2022-07-28T20:38:39.498Z,4.40
2022-07-28T20:41:07.315Z,4.57
2022-07-28T20:43:36.439Z,4.38
2022-07-28T20:46:05.331Z,4.78
2022-07-28T20:48:32.264Z,5.68
2022-07-28T20:50:58.909Z,4.60
2022-07-28T20:53:25.503Z,4.22
2022-07-28T20:55:52.136Z,4.18
2022-07-28T20:58:18.785Z,4.75
2022-07-28T21:00:45.518Z,4.70
2022-07-28T21:03:12.239Z,4.47
2022-07-28T21:05:39.220Z,4.10
2022-07-28T21:08:09.298Z,4.88
2022-07-28T21:10:42.735Z,4.25
2022-07-28T21:13:09.351Z,4.57
2022-07-28T21:15:36.107Z,4.82
2022-07-28T21:18:03.012Z,4.05
2022-07-28T21:20:30.013Z,4.72
2022-07-28T21:22:56.721Z,4.70
2022-07-28T21:25:23.449Z,4.68
2022-07-28T21:28:08.803Z,4.93
2022-07-28T21:30:35.481Z,4.80
2022-07-28T21:33:02.175Z,4.38
2022-07-28T21:35:29.498Z,4.78
2022-07-28T21:37:56.356Z,4.68
2022-07-28T21:40:23.202Z,4.75
2022-07-28T21:42:49.977Z,4.47
2022-07-28T21:45:16.836Z,4.85
2022-07-28T21:47:43.615Z,4.43
2022-07-28T21:50:10.908Z,4.68
2022-07-28T21:52:38.646Z,5.03
2022-07-28T21:55:07.114Z,4.63
2022-07-28T21:57:34.630Z,4.43
2022-07-28T22:00:02.211Z,4.15
2022-07-28T22:02:28.877Z,4.60
2022-07-28T22:04:55.894Z,4.45
2022-07-28T22:07:22.607Z,4.05
2022-07-28T22:09:49.243Z,4.40
2022-07-28T22:12:15.874Z,4.78
2022-07-28T22:14:42.630Z,5.07
2022-07-28T22:17:09.447Z,4.10
2022-07-28T22:19:37.079Z,4.22
2022-07-28T22:22:04.016Z,4.47
2022-07-28T22:24:30.716Z,4.28
2022-07-28T22:26:57.657Z,5.20
2022-07-28T22:29:25.028Z,4.55
2022-07-28T22:31:54.788Z,4.95
2022-07-28T22:34:25.877Z,5.10
2022-07-28T22:36:52.795Z,4.78
2022-07-28T22:39:19.719Z,5.10
2022-07-28T22:41:47.959Z,4.85
2022-07-28T22:44:15.220Z,4.93
2022-07-28T22:46:42.108Z,4.47
2022-07-28T22:49:09.221Z,4.38
2022-07-28T22:51:35.942Z,5.57
2022-07-28T22:54:02.571Z,4.72
2022-07-28T22:56:36.382Z,6.05
2022-07-28T22:59:04.779Z,4.95
2022-07-28T23:01:31.583Z,5.70
2022-07-28T23:03:58.516Z,5.30
2022-07-28T23:06:25.279Z,4.72
2022-07-28T23:08:51.988Z,5.32
2022-07-28T23:11:18.679Z,5.78
2022-07-28T23:13:45.354Z,5.55
2022-07-28T23:16:13.971Z,4.97
2022-07-28T23:18:42.086Z,5.35
2022-07-28T23:21:09.049Z,5.07
2022-07-28T23:23:35.872Z,5.88
2022-07-28T23:26:03.535Z,5.57
2022-07-28T23:28:30.567Z,5.95
2022-07-28T23:30:57.675Z,6.35
2022-07-28T23:33:55.290Z,5.63
2022-07-28T23:36:17.025Z,6.63
2022-07-28T23:41:20.511Z,5.97
2022-07-28T23:43:47.167Z,6.40
2022-07-28T23:46:13.849Z,6.28
2022-07-28T23:48:40.609Z,5.80
2022-07-28T23:51:07.347Z,6.15
2022-07-28T23:53:37.403Z,6.25
2022-07-28T23:56:04.482Z,6.15
2022-07-28T23:58:31.148Z,6.25
